Time;durP1;ratioP1;P1;durP2;ratioP2;P2;SDS_P1;SDS_P2;PMS_P1;PMS_P2;Temp;Humidity;BMP_temperature;BMP_pressure;BME280_temperature;BME280_humidity;BME280_pressure;Samples;Min_cycle;Max_cycle;Signal;HPM_P1;HPM_P2
2021/01/15 00:02:53;;;;;;;47.50;26.07;;;;;;;-3.30;66.73;99791.55;1706283;84;21221;-57
2021/01/15 00:05:58;;;;;;;54.30;27.22;;;;;;;-3.35;66.57;99793.68;1706321;84;21241;-57
2021/01/15 00:09:04;;;;;;;70.78;29.90;;;;;;;-3.41;66.60;99793.59;1677868;85;21430;-56
2021/01/15 00:12:11;;;;;;;78.90;31.65;;;;;;;-3.40;66.71;99795.80;1677960;85;21217;-57
2021/01/15 00:15:17;;;;;;;68.02;31.30;;;;;;;-3.41;66.68;99790.08;1677910;85;21256;-57
2021/01/15 00:18:22;;;;;;;66.25;30.40;;;;;;;-3.43;66.61;99798.22;1677897;85;21750;-58
2021/01/15 00:21:35;;;;;;;67.75;32.40;;;;;;;-3.38;66.78;99797.91;1678013;85;21461;-58
2021/01/15 00:24:41;;;;;;;53.55;27.42;;;;;;;-3.27;66.68;99801.55;1722146;83;21235;-57
2021/01/15 00:27:47;;;;;;;54.17;25.67;;;;;;;-3.16;66.55;99786.12;1722121;83;21835;-57
2021/01/15 00:30:52;;;;;;;41.68;23.47;;;;;;;-3.04;66.42;99794.63;1722164;83;21219;-57
2021/01/15 00:33:58;;;;;;;40.30;21.90;;;;;;;-2.92;66.31;99783.09;1682230;83;21747;-57
2021/01/15 00:37:03;;;;;;;47.25;24.57;;;;;;;-2.75;66.20;99790.81;1721713;82;21220;-58
2021/01/15 00:40:08;;;;;;;47.55;26.02;;;;;;;-2.60;65.97;99781.68;1719439;83;21773;-57
2021/01/15 00:43:15;;;;;;;49.15;27.55;;;;;;;-2.52;65.58;99777.98;1720719;83;21236;-57
2021/01/15 00:46:33;;;;;;;47.33;26.33;;;;;;;-2.46;65.48;99769.53;1720605;83;21448;-57
2021/01/15 00:49:39;;;;;;;47.55;25.70;;;;;;;-2.34;65.47;99771.80;1720544;83;21378;-57
2021/01/15 00:52:45;;;;;;;42.15;23.32;;;;;;;-2.27;65.51;99772.60;1720710;83;21358;-56
2021/01/15 00:55:51;;;;;;;47.95;25.17;;;;;;;-2.22;65.54;99767.74;1712019;83;21229;-56
2021/01/15 00:58:56;;;;;;;39.85;22.90;;;;;;;-2.22;65.46;99767.74;1704059;84;21813;-57
2021/01/15 01:02:07;;;;;;;39.08;21.90;;;;;;;-2.26;65.45;99775.65;1705251;84;21257;-57
2021/01/15 01:05:15;;;;;;;45.90;25.08;;;;;;;-2.33;65.51;99779.72;1705087;84;21240;-57
2021/01/15 01:08:20;;;;;;;42.62;22.90;;;;;;;-2.35;65.65;99769.62;1727707;82;21371;-57
2021/01/15 01:11:28;;;;;;;43.10;22.90;;;;;;;-2.35;65.70;99773.64;1734950;82;21221;-58
2021/01/15 01:14:34;;;;;;;43.98;25.30;;;;;;;-2.34;65.61;99778.48;1735525;82;21947;-58
2021/01/15 01:17:41;;;;;;;41.15;23.83;;;;;;;-2.39;65.70;99769.45;1734643;82;21420;-57
2021/01/15 01:20:46;;;;;;;42.62;23.62;;;;;;;-2.38;65.86;99772.48;1735865;82;21363;-57
2021/01/15 01:23:51;;;;;;;42.43;23.85;;;;;;;-2.45;65.91;99772.57;1735820;82;21406;-57
2021/01/15 01:26:57;;;;;;;41.15;23.98;;;;;;;-2.48;66.04;99778.63;1734448;82;21418;-58
2021/01/15 01:30:02;;;;;;;45.28;24.15;;;;;;;-2.48;66.23;99774.60;1735417;82;21406;-58
2021/01/15 01:33:08;;;;;;;39.67;22.42;;;;;;;-2.52;66.35;99773.95;1735910;82;21359;-56
2021/01/15 01:36:14;;;;;;;37.40;21.65;;;;;;;-2.47;66.54;99777.17;1736010;82;21292;-57
2021/01/15 01:39:20;;;;;;;41.98;22.62;;;;;;;-2.39;66.52;99776.62;1735901;82;21217;-57
2021/01/15 01:42:26;;;;;;;42.35;23.57;;;;;;;-2.47;66.55;99777.17;1735873;82;21221;-58
2021/01/15 01:45:31;;;;;;;31.52;18.42;;;;;;;-2.60;66.85;99778.17;1735882;82;21449;-58
2021/01/15 01:48:37;;;;;;;34.78;19.17;;;;;;;-2.74;67.37;99784.48;1735564;82;21713;-57
2021/01/15 01:51:45;;;;;;;35.38;19.00;;;;;;;-2.98;67.83;99785.34;1735973;82;21280;-59
2021/01/15 01:54:50;;;;;;;38.85;20.15;;;;;;;-3.22;68.48;99778.52;1734802;82;21272;-57
2021/01/15 01:57:57;;;;;;;34.98;19.30;;;;;;;-3.41;68.88;99786.07;1735651;81;21476;-57
2021/01/15 02:01:09;;;;;;;31.85;18.02;;;;;;;-3.60;69.53;99778.91;1735277;82;21359;-58
2021/01/15 02:04:14;;;;;;;32.10;17.35;;;;;;;-3.51;70.20;99781.82;1735747;82;22150;-58
2021/01/15 02:07:24;;;;;;;35.80;18.80;;;;;;;-3.43;70.19;99792.86;1735893;82;21339;-57
2021/01/15 02:10:50;;;;;;;40.65;21.12;;;;;;;-3.39;70.27;99782.32;1735434;82;21422;-57
2021/01/15 02:14:34;;;;;;;39.10;19.90;;;;;;;-3.25;70.57;99784.08;1735584;82;21240;-57
2021/01/15 02:17:47;;;;;;;40.23;20.32;;;;;;;-3.04;70.57;99783.92;1735565;82;21252;-58
2021/01/15 02:21:50;;;;;;;33.38;19.17;;;;;;;-2.88;70.16;99787.27;1735977;82;21367;-58
2021/01/15 02:25:09;;;;;;;38.70;19.45;;;;;;;-2.71;69.93;99795.47;1735010;82;21341;-57
2021/01/15 02:28:44;;;;;;;38.28;19.57;;;;;;;-2.65;69.47;99799.05;1735808;82;21209;-58
2021/01/15 02:31:55;;;;;;;31.40;17.32;;;;;;;-2.55;69.33;99797.45;1735945;82;21407;-57
2021/01/15 02:35:14;;;;;;;34.33;17.90;;;;;;;-2.43;69.12;99796.10;1706852;82;21355;-57
2021/01/15 02:38:25;;;;;;;35.08;18.55;;;;;;;-2.31;68.91;99797.89;1735744;82;21374;-57
2021/01/15 02:41:35;;;;;;;29.57;17.00;;;;;;;-2.17;68.57;99795.58;1735521;82;21348;-57
2021/01/15 02:44:41;;;;;;;29.67;17.35;;;;;;;-2.07;68.08;99801.50;1735680;82;21292;-57
2021/01/15 02:47:57;;;;;;;27.48;16.10;;;;;;;-1.99;67.53;99804.48;1735720;82;21340;-58
2021/01/15 02:51:03;;;;;;;28.05;16.55;;;;;;;-1.95;67.05;99800.59;1734909;82;21240;-57
2021/01/15 02:54:08;;;;;;;26.30;15.08;;;;;;;-1.97;66.53;99811.07;1735761;82;21391;-57
2021/01/15 02:57:17;;;;;;;29.00;16.40;;;;;;;-2.09;66.01;99806.58;1698889;82;21344;-58
2021/01/15 03:00:27;;;;;;;24.90;14.80;;;;;;;-2.35;66.01;99813.83;1735605;82;21343;-57
2021/01/15 03:04:01;;;;;;;25.65;14.68;;;;;;;-2.51;66.11;99818.56;1735799;82;21225;-58
2021/01/15 03:07:08;;;;;;;23.55;13.20;;;;;;;-2.84;66.28;99818.23;1735935;82;21344;-59
2021/01/15 03:10:14;;;;;;;20.88;13.03;;;;;;;-3.14;67.09;99814.98;1735977;82;21873;-58
2021/01/15 03:13:20;;;;;;;21.70;12.30;;;;;;;-3.34;67.61;99822.13;1735749;82;21227;-58
2021/01/15 03:16:27;;;;;;;21.90;13.40;;;;;;;-3.46;68.31;99823.84;1735620;82;21888;-59
2021/01/15 03:19:33;;;;;;;24.92;14.47;;;;;;;-3.45;68.77;99823.33;1735855;82;21394;-58
2021/01/15 03:22:50;;;;;;;27.87;15.28;;;;;;;-3.37;69.08;99822.34;1734732;82;21781;-57
2021/01/15 03:25:48;;;;;;;29.92;16.23;;;;;;;-3.29;69.22;99826.70;1717541;82;21257;-57
2021/01/15 03:28:56;;;;;;;31.48;15.53;;;;;;;-3.18;69.33;99823.69;1735742;82;21411;-57
2021/01/15 03:32:01;;;;;;;31.75;16.20;;;;;;;-3.00;69.33;99816.70;1735916;82;21205;-58
2021/01/15 03:35:06;;;;;;;33.25;16.73;;;;;;;-2.86;69.31;99811.25;1735463;82;21407;-58
2021/01/15 03:38:15;;;;;;;29.63;16.70;;;;;;;-2.80;68.89;99813.50;1735687;82;21228;-57
2021/01/15 03:41:19;;;;;;;32.13;18.05;;;;;;;-2.72;69.05;99808.47;1735521;82;21403;-58
2021/01/15 03:44:24;;;;;;;30.65;17.12;;;;;;;-2.52;69.00;99814.14;1735835;82;21261;-58
2021/01/15 03:47:29;;;;;;;27.20;16.42;;;;;;;-2.33;68.66;99807.86;1735752;82;21528;-57
2021/01/15 03:50:34;;;;;;;31.20;16.75;;;;;;;-2.18;68.23;99808.59;1735428;82;21355;-57
2021/01/15 03:53:44;;;;;;;30.20;17.65;;;;;;;-2.03;67.88;99808.33;1735936;82;21367;-58
2021/01/15 03:56:48;;;;;;;32.45;18.62;;;;;;;-1.91;67.47;99807.47;1735532;82;21259;-59
2021/01/15 03:59:54;;;;;;;29.95;16.15;;;;;;;-1.81;66.99;99804.45;1746090;82;21247;-59
2021/01/15 04:03:02;;;;;;;27.00;16.82;;;;;;;-1.74;66.58;99807.08;1751386;82;21354;-59
2021/01/15 04:06:07;;;;;;;27.10;15.15;;;;;;;-1.71;66.37;99804.16;1751340;82;21220;-57
2021/01/15 04:09:13;;;;;;;30.50;17.30;;;;;;;-1.69;66.01;99810.75;1751311;82;21358;-57
2021/01/15 04:12:29;;;;;;;29.35;16.62;;;;;;;-1.69;66.05;99811.63;1751466;82;21200;-57
2021/01/15 04:15:33;;;;;;;27.90;15.85;;;;;;;-1.63;65.85;99815.19;1751583;82;21209;-57
2021/01/15 04:18:39;;;;;;;28.80;16.57;;;;;;;-1.65;65.81;99812.26;1751820;82;21475;-57
2021/01/15 04:21:46;;;;;;;28.20;15.60;;;;;;;-1.66;65.87;99809.19;1751941;82;21587;-57
2021/01/15 04:24:52;;;;;;;32.38;16.90;;;;;;;-1.59;66.08;99807.27;1751871;82;21366;-57
2021/01/15 04:27:57;;;;;;;31.27;16.23;;;;;;;-1.46;65.99;99805.89;1752114;82;21363;-57
2021/01/15 04:31:03;;;;;;;29.10;16.50;;;;;;;-1.41;65.63;99798.33;1752050;82;21212;-58
2021/01/15 04:34:08;;;;;;;32.75;17.07;;;;;;;-1.47;65.63;99796.11;1752066;82;21382;-57
2021/01/15 04:37:14;;;;;;;28.02;16.25;;;;;;;-1.47;65.71;99795.28;1752135;82;21558;-57
2021/01/15 04:40:20;;;;;;;24.18;14.50;;;;;;;-1.44;65.79;99801.25;1752013;82;21272;-57
2021/01/15 04:43:25;;;;;;;23.47;14.58;;;;;;;-1.42;65.83;99806.50;1751900;82;21756;-57
2021/01/15 04:46:31;;;;;;;22.60;13.53;;;;;;;-1.37;65.95;99801.64;1752077;82;21832;-58
2021/01/15 04:49:37;;;;;;;20.02;12.33;;;;;;;-1.30;65.89;99802.41;1751922;82;21390;-57
2021/01/15 04:52:44;;;;;;;19.00;11.78;;;;;;;-1.22;65.80;99803.19;1752042;82;21354;-57
2021/01/15 04:55:52;;;;;;;21.60;13.15;;;;;;;-1.26;65.43;99803.03;1751706;82;21400;-58
2021/01/15 04:58:57;;;;;;;17.90;12.33;;;;;;;-1.38;65.56;99803.97;1751958;82;21240;-57
2021/01/15 05:02:03;;;;;;;19.50;12.30;;;;;;;-1.40;65.66;99808.59;1708422;83;21708;-55
2021/01/15 05:05:10;;;;;;;17.40;10.10;;;;;;;-1.44;65.88;99811.98;1720778;83;21225;-57
2021/01/15 05:08:23;;;;;;;20.23;12.18;;;;;;;-1.45;65.83;99805.39;1707831;84;21195;-57
2021/01/15 05:11:29;;;;;;;22.30;12.93;;;;;;;-1.61;65.90;99815.07;1707952;83;21287;-57
2021/01/15 05:14:36;;;;;;;32.05;15.98;;;;;;;-1.59;66.31;99807.77;1707786;84;21249;-57
2021/01/15 05:17:41;;;;;;;28.70;15.25;;;;;;;-1.51;66.25;99803.53;1708041;84;21195;-57
2021/01/15 05:20:46;;;;;;;32.30;16.90;;;;;;;-1.56;65.97;99815.12;1707946;84;21155;-57
2021/01/15 05:23:51;;;;;;;34.05;17.90;;;;;;;-1.57;66.18;99825.45;1707829;84;21228;-58
2021/01/15 05:26:58;;;;;;;27.07;15.08;;;;;;;-1.56;66.07;99827.19;1707928;84;21182;-59
2021/01/15 05:30:30;;;;;;;24.25;13.85;;;;;;;-1.55;66.21;99831.58;1707908;84;21700;-59
2021/01/15 05:33:35;;;;;;;22.62;13.30;;;;;;;-1.56;66.09;99833.90;1707877;84;21249;-59
2021/01/15 05:36:42;;;;;;;21.80;13.18;;;;;;;-1.65;66.27;99836.41;1686543;84;21230;-59
2021/01/15 05:39:50;;;;;;;19.90;12.15;;;;;;;-1.65;66.31;99833.21;1686246;85;21297;-59
2021/01/15 05:42:58;;;;;;;23.55;14.53;;;;;;;-1.63;66.23;99831.76;1685980;85;21238;-59
2021/01/15 05:46:23;;;;;;;22.95;12.40;;;;;;;-1.71;66.25;99824.28;1685879;85;21257;-58
2021/01/15 05:49:29;;;;;;;21.12;13.08;;;;;;;-1.76;66.35;99826.95;1686352;85;21412;-57
2021/01/15 05:52:36;;;;;;;19.00;11.63;;;;;;;-1.87;66.44;99815.64;1686172;85;21345;-57
2021/01/15 05:55:43;;;;;;;21.15;12.58;;;;;;;-1.95;66.58;99815.34;1686267;85;21289;-58
2021/01/15 05:59:09;;;;;;;19.42;11.90;;;;;;;-2.03;66.72;99817.72;1686662;83;21280;-58
2021/01/15 06:02:14;;;;;;;20.65;12.10;;;;;;;-2.14;66.94;99820.31;1697207;80;21237;-58
2021/01/15 06:05:29;;;;;;;22.00;13.35;;;;;;;-2.23;67.25;99822.33;1706749;83;21202;-58
2021/01/15 06:08:37;;;;;;;21.73;13.35;;;;;;;-2.19;67.59;99823.80;1725878;83;21375;-58
2021/01/15 06:11:47;;;;;;;22.42;13.40;;;;;;;-2.02;67.75;99827.50;1721012;83;21212;-58
2021/01/15 06:14:57;;;;;;;22.22;13.30;;;;;;;-1.84;67.44;99819.44;1726294;83;21296;-57
2021/01/15 06:18:02;;;;;;;22.00;13.05;;;;;;;-1.77;67.17;99818.03;1713419;83;21717;-55
2021/01/15 06:21:19;;;;;;;23.75;14.07;;;;;;;-1.67;66.91;99829.81;1713494;83;21181;-58
2021/01/15 06:24:25;;;;;;;30.08;16.80;;;;;;;-1.63;66.64;99823.23;1726692;83;21897;-58
2021/01/15 06:27:31;;;;;;;27.25;14.35;;;;;;;-1.62;66.52;99825.44;1691256;82;21204;-58
2021/01/15 06:30:40;;;;;;;24.07;14.63;;;;;;;-1.56;66.39;99828.53;1727813;83;21212;-58
2021/01/15 06:33:46;;;;;;;23.00;13.55;;;;;;;-1.44;66.30;99835.30;1727963;83;21887;-58
2021/01/15 06:36:57;;;;;;;22.45;14.40;;;;;;;-1.38;65.81;99826.78;1728139;83;21331;-58
2021/01/15 06:40:15;;;;;;;20.00;12.65;;;;;;;-1.44;65.70;99831.28;1726859;83;21234;-58
2021/01/15 06:43:38;;;;;;;18.48;12.23;;;;;;;-1.45;65.70;99825.52;1720187;83;21252;-57
2021/01/15 06:46:51;;;;;;;22.87;13.60;;;;;;;-1.43;65.67;99838.34;1725058;83;21212;-58
2021/01/15 06:49:58;;;;;;;24.20;14.73;;;;;;;-1.31;65.79;99829.36;1728477;82;21358;-57
2021/01/15 06:53:03;;;;;;;18.87;12.85;;;;;;;-1.14;65.43;99824.95;1724660;83;21371;-57
2021/01/15 06:56:14;;;;;;;21.65;12.47;;;;;;;-1.07;65.08;99827.05;1727593;83;21267;-57
2021/01/15 06:59:21;;;;;;;28.60;15.35;;;;;;;-1.07;64.74;99826.17;1727671;83;21224;-58
2021/01/15 07:02:51;;;;;;;29.80;17.48;;;;;;;-1.07;64.84;99822.14;1732210;81;21215;-58
2021/01/15 07:05:57;;;;;;;27.37;15.55;;;;;;;-1.01;64.56;99832.42;1741048;82;21389;-56
2021/01/15 07:09:06;;;;;;;23.52;12.50;;;;;;;-1.03;64.48;99827.67;1736083;82;21267;-56
2021/01/15 07:12:16;;;;;;;20.68;11.85;;;;;;;-1.01;64.44;99827.05;1740799;82;21339;-62
2021/01/15 07:15:24;;;;;;;25.95;14.87;;;;;;;-0.98;64.23;99829.53;1727176;82;21263;-58
2021/01/15 07:18:38;;;;;;;24.05;13.62;;;;;;;-1.01;63.80;99836.45;1727782;82;21421;-58
2021/01/15 07:21:45;;;;;;;20.82;13.45;;;;;;;-1.11;63.62;99832.77;1741585;81;21172;-59
2021/01/15 07:24:50;;;;;;;27.13;15.72;;;;;;;-1.26;63.57;99845.52;1741383;82;21362;-57
2021/01/15 07:27:55;;;;;;;26.82;15.70;;;;;;;-1.42;63.83;99848.09;1730534;82;21827;-57
2021/01/15 07:31:01;;;;;;;24.50;15.45;;;;;;;-1.52;64.09;99832.69;1717825;82;21185;-57
2021/01/15 07:34:08;;;;;;;23.60;14.40;;;;;;;-1.60;64.03;99848.49;1717492;82;21283;-57
2021/01/15 07:37:27;;;;;;;28.23;15.10;;;;;;;-1.70;64.29;99841.24;1734341;82;21334;-57
2021/01/15 07:40:31;;;;;;;25.32;14.68;;;;;;;-1.85;64.42;99841.87;1739921;81;21368;-57
2021/01/15 07:43:40;;;;;;;28.12;15.85;;;;;;;-1.92;64.95;99845.95;1717687;82;21243;-57
2021/01/15 07:47:00;;;;;;;29.00;16.82;;;;;;;-1.88;65.11;99844.78;1736901;81;21949;-56
2021/01/15 07:50:05;;;;;;;29.63;16.37;;;;;;;-1.83;65.26;99843.97;1740375;82;21570;-55
2021/01/15 07:53:28;;;;;;;25.05;14.98;;;;;;;-1.74;65.30;99840.61;1673794;85;21236;-56
2021/01/15 07:56:34;;;;;;;31.42;17.70;;;;;;;-1.67;65.36;99843.23;1736672;82;21236;-57
2021/01/15 07:59:43;;;;;;;31.77;17.52;;;;;;;-1.56;65.43;99847.79;1741106;82;21311;-56
2021/01/15 08:02:50;;;;;;;35.03;18.37;;;;;;;-1.41;65.42;99847.15;1740504;82;21701;-60
2021/01/15 08:05:55;;;;;;;35.52;20.92;;;;;;;-1.34;65.10;99850.59;1748730;81;21732;-59
2021/01/15 08:09:10;;;;;;;36.28;19.07;;;;;;;-1.28;64.95;99856.01;1744252;82;21267;-57
2021/01/15 08:12:18;;;;;;;42.17;21.17;;;;;;;-1.20;65.04;99853.58;1718139;83;21319;-58
2021/01/15 08:15:39;;;;;;;33.42;18.48;;;;;;;-1.03;64.87;99866.61;1720425;83;21358;-59
2021/01/15 08:18:45;;;;;;;43.90;21.37;;;;;;;-0.90;64.77;99866.03;1733271;82;21251;-60
2021/01/15 08:21:53;;;;;;;28.85;16.45;;;;;;;-0.84;64.31;99858.88;1731342;81;21270;-60
2021/01/15 08:24:59;;;;;;;37.78;18.48;;;;;;;-0.88;64.24;99853.34;1720540;83;21223;-58
2021/01/15 08:28:04;;;;;;;43.23;21.35;;;;;;;-0.86;64.06;99859.47;1750869;81;21428;-61
2021/01/15 08:31:13;;;;;;;39.33;20.08;;;;;;;-0.90;64.03;99852.59;1720855;83;21176;-61
2021/01/15 08:34:25;;;;;;;40.65;19.92;;;;;;;-0.88;64.00;99856.03;1744681;82;21267;-61
2021/01/15 08:37:30;;;;;;;41.60;20.80;;;;;;;-0.80;64.27;99860.34;1750749;82;21291;-61
2021/01/15 08:40:39;;;;;;;37.25;19.65;;;;;;;-0.62;64.04;99870.52;1737842;82;21768;-60
2021/01/15 08:43:46;;;;;;;42.25;20.50;;;;;;;-0.66;63.78;99862.81;1721132;83;21704;-60
2021/01/15 08:46:51;;;;;;;35.98;19.30;;;;;;;-0.67;63.68;99859.77;1741887;82;21274;-59
2021/01/15 08:50:05;;;;;;;34.90;17.50;;;;;;;-0.68;63.68;99864.28;1751169;82;21365;-61
2021/01/15 08:53:10;;;;;;;41.83;20.62;;;;;;;-0.80;63.58;99863.02;1746705;82;21496;-60
2021/01/15 08:56:15;;;;;;;36.45;19.07;;;;;;;-0.82;63.88;99863.62;1744986;82;21392;-59
2021/01/15 08:59:33;;;;;;;35.55;17.50;;;;;;;-0.61;64.28;99859.30;1735064;82;21207;-59
2021/01/15 09:02:49;;;;;;;38.35;18.37;;;;;;;-0.40;63.32;99859.81;1745164;82;21808;-59
2021/01/15 09:06:00;;;;;;;39.63;19.12;;;;;;;-0.44;63.21;99865.08;1746741;80;21210;-60
2021/01/15 09:09:17;;;;;;;37.00;19.30;;;;;;;-0.28;63.35;99855.31;1729502;82;21207;-57
2021/01/15 09:12:25;;;;;;;37.20;18.92;;;;;;;-0.19;62.75;99860.82;1721235;82;21251;-59
2021/01/15 09:15:35;;;;;;;32.90;17.77;;;;;;;-0.25;62.52;99857.28;1717792;82;21886;-59
2021/01/15 09:18:40;;;;;;;39.53;20.10;;;;;;;-0.23;62.72;99861.19;1744244;82;21270;-60
2021/01/15 09:22:01;;;;;;;39.53;20.32;;;;;;;-0.20;62.55;99868.53;1721931;82;21207;-59
2021/01/15 09:25:06;;;;;;;40.50;21.65;;;;;;;0.06;62.54;99852.16;1734167;82;21196;-57
2021/01/15 09:28:32;;;;;;;37.98;21.15;;;;;;;0.27;61.91;99851.78;1740708;82;22241;-59
2021/01/15 09:31:37;;;;;;;41.73;21.52;;;;;;;0.27;61.54;99849.92;1749652;82;21573;-58
2021/01/15 09:34:44;;;;;;;37.05;21.20;;;;;;;0.25;61.42;99849.21;1722920;82;21802;-59
2021/01/15 09:37:50;;;;;;;36.33;19.42;;;;;;;0.32;61.19;99848.23;1718506;83;21301;-59
2021/01/15 09:41:16;;;;;;;29.85;17.17;;;;;;;0.30;61.02;99845.66;1720418;83;21168;-56
2021/01/15 09:44:22;;;;;;;35.98;20.85;;;;;;;0.25;61.15;99847.87;1722334;83;21220;-57
2021/01/15 09:47:28;;;;;;;29.85;18.45;;;;;;;0.26;61.37;99854.08;1689141;85;21322;-57
2021/01/15 09:50:33;;;;;;;30.85;18.30;;;;;;;0.40;61.63;99850.64;1693095;84;21282;-56
2021/01/15 09:53:38;;;;;;;31.62;18.95;;;;;;;0.61;61.39;99843.51;1706091;83;21219;-56
2021/01/15 09:56:44;;;;;;;30.95;17.60;;;;;;;0.69;60.47;99846.42;1693073;84;21202;-57
2021/01/15 09:59:49;;;;;;;33.23;17.95;;;;;;;0.66;60.81;99844.47;1717117;83;21247;-55
2021/01/15 10:02:54;;;;;;;33.08;19.35;;;;;;;0.78;60.28;99841.61;1718597;83;21755;-56
2021/01/15 10:06:00;;;;;;;35.78;20.62;;;;;;;0.77;60.24;99836.36;1702612;83;21584;-54
2021/01/15 10:09:04;;;;;;;33.23;18.65;;;;;;;0.84;60.14;99833.53;1721874;83;21294;-55
2021/01/15 10:12:12;;;;;;;28.07;17.67;;;;;;;1.03;60.22;99841.27;1721358;83;21201;-54
2021/01/15 10:15:19;;;;;;;28.23;18.62;;;;;;;1.23;59.93;99844.50;1695438;83;21819;-56
2021/01/15 10:18:24;;;;;;;30.02;18.30;;;;;;;1.47;59.53;99834.28;1720383;83;21257;-56
2021/01/15 10:21:35;;;;;;;28.40;16.62;;;;;;;1.57;58.72;99834.34;1722466;83;21198;-56
2021/01/15 10:24:41;;;;;;;28.70;17.60;;;;;;;1.47;58.63;99832.94;1722145;83;21731;-55
2021/01/15 10:27:46;;;;;;;30.60;18.75;;;;;;;1.41;58.65;99832.13;1722533;83;21175;-55
2021/01/15 10:30:56;;;;;;;34.80;18.73;;;;;;;1.24;58.46;99829.16;1721741;82;21571;-53
2021/01/15 10:34:05;;;;;;;31.17;19.10;;;;;;;0.91;58.99;99824.80;1722645;83;21338;-55
2021/01/15 10:37:10;;;;;;;34.90;20.30;;;;;;;0.70;59.76;99820.36;1723320;83;21544;-54
2021/01/15 10:40:17;;;;;;;35.03;20.40;;;;;;;0.73;60.26;99822.28;1723275;83;21727;-54
2021/01/15 10:43:22;;;;;;;38.75;23.35;;;;;;;0.85;60.77;99821.27;1723106;83;21305;-54
2021/01/15 10:46:50;;;;;;;32.15;20.10;;;;;;;1.16;60.95;99821.73;1723077;83;21218;-55
2021/01/15 10:49:55;;;;;;;30.72;17.55;;;;;;;1.44;60.61;99817.55;1722734;83;21250;-54
2021/01/15 10:53:01;;;;;;;36.70;19.17;;;;;;;1.63;60.08;99820.84;1723010;83;21214;-54
2021/01/15 10:56:09;;;;;;;29.87;18.10;;;;;;;1.73;59.86;99812.31;1723238;83;21724;-55
2021/01/15 10:59:15;;;;;;;34.30;20.90;;;;;;;1.78;59.65;99810.91;1723082;83;21241;-55
2021/01/15 11:02:21;;;;;;;33.15;19.57;;;;;;;1.80;59.41;99808.94;1713825;83;21219;-54
2021/01/15 11:05:27;;;;;;;35.17;21.23;;;;;;;1.84;59.42;99802.78;1696201;83;21763;-53
2021/01/15 11:08:32;;;;;;;35.30;20.48;;;;;;;1.89;59.58;99807.28;1722394;83;21583;-54
2021/01/15 11:11:37;;;;;;;33.05;19.92;;;;;;;1.96;59.43;99802.55;1703543;83;21270;-54
2021/01/15 11:14:44;;;;;;;32.15;20.43;;;;;;;2.00;59.43;99797.23;1715189;83;21329;-55
2021/01/15 11:17:54;;;;;;;31.35;17.67;;;;;;;2.03;59.31;99807.75;1720167;83;21256;-54
2021/01/15 11:21:00;;;;;;;39.13;20.77;;;;;;;2.03;59.34;99797.47;1721286;83;21220;-54
2021/01/15 11:24:06;;;;;;;36.85;20.52;;;;;;;1.93;59.33;99801.97;1722879;83;21251;-54
2021/01/15 11:27:12;;;;;;;31.82;19.52;;;;;;;1.89;59.59;99796.49;1718259;83;21210;-54
2021/01/15 11:30:18;;;;;;;35.43;19.55;;;;;;;1.91;59.77;99787.75;1720443;83;21177;-54
2021/01/15 11:33:24;;;;;;;34.92;21.20;;;;;;;1.93;59.87;99793.87;1718033;82;21254;-54
2021/01/15 11:36:33;;;;;;;34.00;19.52;;;;;;;1.96;59.90;99790.41;1720005;83;21679;-52
2021/01/15 11:39:38;;;;;;;31.10;20.15;;;;;;;2.00;60.00;99789.13;1719495;82;21773;-53
2021/01/15 11:42:44;;;;;;;31.12;20.92;;;;;;;2.04;60.02;99786.53;1720000;82;21205;-51
2021/01/15 11:45:50;;;;;;;34.00;19.85;;;;;;;2.04;60.00;99785.19;1720456;82;21265;-52
2021/01/15 11:48:56;;;;;;;31.45;20.15;;;;;;;2.08;60.11;99787.13;1720846;83;21378;-54
2021/01/15 11:52:07;;;;;;;34.40;20.20;;;;;;;2.08;60.20;99792.00;1720968;83;21268;-56
2021/01/15 11:55:21;;;;;;;32.98;21.50;;;;;;;2.09;60.30;99791.52;1721494;82;21371;-56
2021/01/15 11:58:28;;;;;;;34.92;21.73;;;;;;;2.08;60.38;99792.00;1714706;83;21210;-57
2021/01/15 12:01:36;;;;;;;38.38;22.60;;;;;;;2.03;60.44;99795.60;1716712;83;21215;-57
2021/01/15 12:04:41;;;;;;;34.10;19.50;;;;;;;1.96;60.29;99803.91;1713887;83;21247;-57
2021/01/15 12:07:46;;;;;;;34.98;18.95;;;;;;;1.64;59.37;99814.45;1719900;83;21375;-57
2021/01/15 12:10:51;;;;;;;32.23;19.23;;;;;;;1.18;58.66;99818.91;1719820;83;21736;-57
2021/01/15 12:13:56;;;;;;;29.70;17.23;;;;;;;0.66;58.42;99820.23;1719293;83;21234;-58
2021/01/15 12:17:06;;;;;;;31.15;17.35;;;;;;;0.32;58.39;99811.38;1719099;83;21847;-58
2021/01/15 12:20:14;;;;;;;29.87;16.15;;;;;;;0.03;58.53;99822.33;1716405;83;21977;-58
2021/01/15 12:23:23;;;;;;;30.88;16.93;;;;;;;-0.29;58.87;99832.10;1710073;82;21230;-57
2021/01/15 12:26:28;;;;;;;27.00;16.07;;;;;;;-0.56;59.43;99828.89;1711266;83;21693;-59
2021/01/15 12:29:36;;;;;;;30.77;17.27;;;;;;;-0.67;60.17;99826.18;1717348;82;21323;-58
2021/01/15 12:32:43;;;;;;;27.85;16.75;;;;;;;-0.72;60.55;99837.77;1711810;82;21214;-58
2021/01/15 12:35:50;;;;;;;26.33;15.98;;;;;;;-0.83;60.80;99839.08;1723078;83;21315;-58
2021/01/15 12:38:57;;;;;;;34.65;18.67;;;;;;;-0.90;61.12;99841.37;1722176;83;21239;-58
2021/01/15 12:42:03;;;;;;;33.88;19.95;;;;;;;-0.86;61.32;99848.25;1713285;83;21608;-57
2021/01/15 12:45:08;;;;;;;29.75;15.90;;;;;;;-0.82;61.28;99862.27;1706158;82;21285;-58
2021/01/15 12:48:14;;;;;;;26.05;15.98;;;;;;;-0.81;60.99;99867.53;1716474;83;21266;-57
2021/01/15 12:51:20;;;;;;;38.98;19.27;;;;;;;-0.91;60.95;99866.53;1716930;82;21226;-58
2021/01/15 12:54:28;;;;;;;35.03;17.87;;;;;;;-0.88;61.21;99864.95;1704760;83;21242;-55
2021/01/15 12:57:38;;;;;;;36.70;19.52;;;;;;;-0.87;61.16;99868.00;1714416;83;21218;-56
2021/01/15 13:00:44;;;;;;;39.58;17.75;;;;;;;-0.87;61.22;99868.52;1711151;83;21207;-60
2021/01/15 13:03:51;;;;;;;26.33;14.80;;;;;;;-0.88;61.11;99873.50;1718972;83;21211;-56
2021/01/15 13:06:56;;;;;;;25.48;14.07;;;;;;;-0.86;60.66;99891.23;1713986;83;21207;-56
2021/01/15 13:10:01;;;;;;;49.60;26.65;;;;;;;-1.06;60.32;99878.94;1712841;83;21561;-55
2021/01/15 13:13:08;;;;;;;25.37;13.80;;;;;;;-1.26;60.75;99888.94;1721246;83;21258;-56
2021/01/15 13:16:13;;;;;;;26.77;14.90;;;;;;;-1.34;60.94;99891.33;1721489;83;21175;-55
2021/01/15 13:19:20;;;;;;;24.05;13.40;;;;;;;-1.44;61.03;99876.90;1722627;83;21206;-56
2021/01/15 13:22:28;;;;;;;24.43;14.15;;;;;;;-1.55;61.05;99886.59;1723720;82;21744;-61
2021/01/15 13:25:49;;;;;;;27.32;14.70;;;;;;;-1.60;61.22;99897.27;1721725;83;21730;-58
2021/01/15 13:28:54;;;;;;;25.65;15.10;;;;;;;-1.66;61.28;99890.53;1720109;83;21298;-60
2021/01/15 13:32:07;;;;;;;29.87;15.13;;;;;;;-1.74;61.59;99894.25;1722792;83;21236;-59
2021/01/15 13:35:14;;;;;;;22.82;13.50;;;;;;;-1.72;61.74;99893.67;1713835;83;21271;-58
2021/01/15 13:38:23;;;;;;;26.35;12.40;;;;;;;-1.78;61.49;99903.50;1717882;83;21267;-62
2021/01/15 13:41:34;;;;;;;29.27;15.65;;;;;;;-1.92;61.60;99911.66;1721106;83;21322;-59
2021/01/15 13:44:46;;;;;;;22.50;12.93;;;;;;;-2.01;61.69;99901.59;1716597;83;21278;-60
2021/01/15 13:47:50;;;;;;;23.05;12.73;;;;;;;-2.03;61.97;99904.02;1719872;83;21199;-58
2021/01/15 13:51:02;;;;;;;31.42;16.00;;;;;;;-2.03;61.90;99909.38;1722339;83;21788;-57
2021/01/15 13:54:12;;;;;;;25.48;13.72;;;;;;;-2.17;61.81;99900.95;1722074;83;21211;-58
2021/01/15 13:57:17;;;;;;;26.57;13.90;;;;;;;-2.27;62.05;99906.61;1695772;83;21191;-57
2021/01/15 14:00:25;;;;;;;24.15;12.60;;;;;;;-2.33;62.28;99917.73;1718287;83;21231;-58
2021/01/15 14:03:30;;;;;;;25.85;13.25;;;;;;;-2.37;62.17;99914.03;1686656;83;21185;-57
2021/01/15 14:06:37;;;;;;;22.75;12.43;;;;;;;-2.45;62.11;99920.41;1716325;83;21735;-56
2021/01/15 14:09:43;;;;;;;26.17;13.68;;;;;;;-2.60;62.13;99912.94;1715654;83;21197;-56
2021/01/15 14:12:49;;;;;;;23.12;14.20;;;;;;;-2.69;62.38;99916.25;1707413;83;21223;-58
2021/01/15 14:15:54;;;;;;;25.72;13.45;;;;;;;-2.73;62.77;99914.76;1715437;83;21573;-56
2021/01/15 14:19:00;;;;;;;31.00;16.37;;;;;;;-2.68;63.03;99915.28;1720315;83;21238;-56
2021/01/15 14:22:06;;;;;;;30.10;16.10;;;;;;;-2.65;63.21;99927.15;1714623;83;21206;-57
2021/01/15 14:25:14;;;;;;;30.52;15.98;;;;;;;-2.64;63.26;99923.97;1722547;83;21720;-56
2021/01/15 14:28:19;;;;;;;31.70;16.48;;;;;;;-2.69;63.46;99923.41;1693372;84;21207;-57
2021/01/15 14:31:24;;;;;;;31.23;16.65;;;;;;;-2.71;63.76;99935.58;1688293;85;21200;-57